Terminal Aerodrome Forecast
Issued by NWS Cleveland, OH

Home | Current Version | Previous Version | Graphics & Text | Print | Product List | Glossary On
Versions: 1 2 3 4 5 6 7 8 9 10 11 12 13 14 15 16 17
000
FTUS41 KCLE 220958 AAA
TAFMFD
TAF AMD
KMFD 220958Z 2210/2306 16005KT P6SM VCSH SCT060 BKN100
      TEMPO 2210/2211 5SM -SHRA BKN060
     FM221200 20010KT P6SM SCT060 BKN120
     FM221700 20014G22KT P6SM SCT060 BKN150
     FM230000 23010KT P6SM SCT050 BKN080=

USA.gov is the U.S. government's official web portal to all federal, state and local government web resources and services.